JZI weather

Charleston Executive Airport
Charleston, South Carolina, United States

Public forecast

Using degrees Fahrenheit for public forecast. Weather courtesy of forecast.io.

Current aviation weather report (METAR) for Charleston Executive Airport

Retrieved 2019/12/14 15:35 UTC (0 seconds ago):

KJZI 141535Z AUTO 26006G15KT 9SM OVC007 12/10 A2967 RMK AO2 LTG DSNT S

Closest aviation forecast (TAF) to Charleston Executive Airport

Closest forecast is Charleston Air Force Base-International Airport, 12.0 nm (22.3 km) N. Retrieved 2019/12/14 12:28 UTC (3 hours ago):

TAF KCHS 141123Z 1412/1512 26007KT P6SM -SHRA BKN004 OVC060 FM141330 27008KT P6SM BKN007 FM141500 26012G18KT P6SM SCT008 BKN015 FM141800 27015G22KT P6SM SCT020 FM142300 27007KT P6SM SKC